createdAt,value
2019-05-02T00:03:30.433Z,98235.11
2019-05-02T00:08:36.099Z,98227.57
2019-05-02T00:13:41.862Z,98226.62
2019-05-02T00:18:47.279Z,98230.78
2019-05-02T00:23:52.660Z,98227.00
2019-05-02T00:28:58.017Z,98223.25
2019-05-02T00:34:03.489Z,98218.89
2019-05-02T00:39:13.846Z,98208.52
2019-05-02T00:44:18.252Z,98205.06
2019-05-02T00:49:23.654Z,98199.11
2019-05-02T00:54:29.115Z,98198.11
2019-05-02T00:59:37.807Z,98193.23
2019-05-02T01:04:43.286Z,98185.30
2019-05-02T01:09:48.949Z,98180.42
2019-05-02T01:14:54.618Z,98178.25
2019-05-02T01:20:00.153Z,98173.16
2019-05-02T01:25:06.214Z,98172.64
2019-05-02T01:30:25.207Z,98163.52
2019-05-02T01:35:38.809Z,98152.73
2019-05-02T01:40:53.314Z,98160.75
2019-05-02T01:45:55.375Z,98146.70
2019-05-02T01:51:04.663Z,98143.63
2019-05-02T01:56:07.940Z,98142.82
2019-05-02T02:01:16.228Z,98142.39
2019-05-02T02:06:20.233Z,98129.67
2019-05-02T02:11:28.492Z,98126.87
2019-05-02T02:16:35.212Z,98129.95
2019-05-02T02:22:02.761Z,98119.22
2019-05-02T02:27:07.203Z,98117.52
2019-05-02T02:32:12.608Z,98122.64
2019-05-02T02:37:19.378Z,98115.17
2019-05-02T02:42:31.451Z,98116.23
2019-05-02T02:47:32.089Z,98120.56
2019-05-02T02:52:44.405Z,98115.41
2019-05-02T02:57:44.432Z,98114.24
2019-05-02T03:02:50.143Z,98117.06
2019-05-02T03:07:59.772Z,98113.30
2019-05-02T03:13:21.675Z,98118.02
2019-05-02T03:18:39.989Z,98125.46
2019-05-02T03:23:34.789Z,98121.30
2019-05-02T03:28:41.679Z,98122.32
2019-05-02T03:34:00.149Z,98124.81
2019-05-02T03:38:54.888Z,98119.91
2019-05-02T03:44:10.537Z,98124.67
2019-05-02T03:49:09.701Z,98116.98
2019-05-02T03:54:19.846Z,98119.43
2019-05-02T03:59:37.512Z,98120.70
2019-05-02T04:04:31.964Z,98130.52
2019-05-02T04:09:42.151Z,98127.73
2019-05-02T04:14:47.455Z,98117.38
2019-05-02T04:19:53.227Z,98116.52
2019-05-02T04:24:58.850Z,98111.84
2019-05-02T04:30:11.366Z,98113.88
2019-05-02T04:35:13.064Z,98111.68
2019-05-02T04:40:19.098Z,98117.09
2019-05-02T04:45:29.243Z,98113.32
2019-05-02T04:50:31.685Z,98119.89
2019-05-02T04:55:38.040Z,98120.98
2019-05-02T05:00:45.010Z,98117.70
2019-05-02T05:05:51.707Z,98119.30
2019-05-02T05:10:57.435Z,98121.17
2019-05-02T05:16:08.132Z,98123.12
2019-05-02T05:21:12.852Z,98126.47
2019-05-02T05:26:33.895Z,98138.75
2019-05-02T05:31:38.348Z,98132.25
2019-05-02T05:36:44.100Z,98135.86
2019-05-02T05:41:53.595Z,98129.35
2019-05-02T05:47:02.225Z,98131.80
2019-05-02T05:52:10.372Z,98129.59
2019-05-02T05:57:17.426Z,98129.77
2019-05-02T06:02:23.098Z,98123.00
2019-05-02T06:07:32.835Z,98124.45
2019-05-02T06:12:35.935Z,98124.89
2019-05-02T06:17:42.710Z,98119.98
2019-05-02T06:22:48.485Z,98122.38
2019-05-02T06:27:54.718Z,98120.89
2019-05-02T06:33:01.416Z,98122.73
2019-05-02T06:38:08.125Z,98122.31
2019-05-02T06:43:18.943Z,98117.58
2019-05-02T06:48:42.466Z,98121.61
2019-05-02T06:53:54.352Z,98115.66
2019-05-02T06:59:17.877Z,98111.68
2019-05-02T07:04:23.091Z,98106.71
2019-05-02T07:09:40.590Z,98096.57
2019-05-02T07:14:37.198Z,98095.87
2019-05-02T07:19:47.052Z,98096.09
2019-05-02T07:24:54.907Z,98091.69
2019-05-02T07:30:15.465Z,98097.11
2019-05-02T07:35:28.188Z,98083.79
2019-05-02T07:40:42.543Z,98084.53
2019-05-02T07:45:57.522Z,98089.23
2019-05-02T07:51:06.810Z,98085.47
2019-05-02T07:56:17.012Z,98087.03
2019-05-02T08:01:19.537Z,98086.02
2019-05-02T08:06:46.463Z,98083.09
2019-05-02T08:12:39.192Z,98080.96
2019-05-02T08:18:42.093Z,98076.03
2019-05-02T08:24:21.917Z,98071.52
2019-05-02T08:29:42.179Z,98079.09
2019-05-02T08:35:19.476Z,98082.88
2019-05-02T08:40:47.895Z,98085.84
2019-05-02T08:46:09.417Z,98087.16
2019-05-02T08:51:24.535Z,98087.67
2019-05-02T08:56:42.396Z,98096.29
2019-05-02T09:01:56.439Z,98089.70
2019-05-02T09:07:09.684Z,98090.22
2019-05-02T09:12:31.970Z,98095.26
2019-05-02T09:17:56.107Z,98082.66
2019-05-02T09:23:09.459Z,98076.12
2019-05-02T09:28:26.563Z,98076.12
2019-05-02T09:33:45.210Z,98071.14
2019-05-02T09:38:57.655Z,98069.86
2019-05-02T09:44:19.113Z,98065.94
2019-05-02T09:49:34.770Z,98060.13
2019-05-02T09:54:47.832Z,98049.18
2019-05-02T10:00:04.626Z,98050.70
2019-05-02T10:05:19.519Z,98039.30
2019-05-02T10:10:44.285Z,98033.61
2019-05-02T10:15:58.013Z,98025.88
2019-05-02T10:21:26.393Z,98025.25
2019-05-02T10:27:04.001Z,98023.90
2019-05-02T10:32:26.240Z,98027.62
2019-05-02T10:37:47.615Z,98001.91
2019-05-02T10:43:07.765Z,98008.59
2019-05-02T10:48:37.223Z,98005.17
2019-05-02T10:54:20.671Z,98006.70
2019-05-02T10:59:37.544Z,97995.66
2019-05-02T11:05:05.925Z,97988.41
2019-05-02T11:10:27.879Z,97978.78
2019-05-02T11:16:09.759Z,97979.47
2019-05-02T11:21:26.344Z,97973.17
2019-05-02T11:26:43.029Z,97973.83
2019-05-02T11:31:49.706Z,97967.56
2019-05-02T11:36:55.355Z,97957.22
2019-05-02T11:42:02.073Z,97955.19
2019-05-02T11:47:08.808Z,97957.06
2019-05-02T11:52:14.266Z,97948.75
2019-05-02T11:57:28.472Z,97944.05
2019-05-02T12:08:52.790Z,97941.68
2019-05-02T12:14:09.252Z,97940.41
2019-05-02T12:19:23.722Z,97950.13
2019-05-02T12:24:45.266Z,97942.13
2019-05-02T12:35:26.269Z,97925.55
2019-05-02T12:40:32.545Z,97930.47
2019-05-02T12:45:48.982Z,97930.47
2019-05-02T12:50:55.203Z,97943.43
2019-05-02T12:56:02.233Z,97940.23
2019-05-02T13:01:12.255Z,97931.42
2019-05-02T13:06:22.006Z,97934.34
2019-05-02T13:11:45.928Z,97924.11
2019-05-02T13:17:01.367Z,97938.52
2019-05-02T13:22:45.160Z,97917.69
2019-05-02T13:28:17.047Z,97912.16
2019-05-02T13:33:58.635Z,97906.66
2019-05-02T13:39:22.006Z,97913.44
2019-05-02T13:44:44.566Z,97891.13
2019-05-02T13:49:59.124Z,97901.09
2019-05-02T13:55:44.394Z,97894.09
2019-05-02T14:01:03.417Z,97889.93
2019-05-02T14:06:22.019Z,97887.38
2019-05-02T14:11:50.164Z,97880.56
2019-05-02T14:17:27.629Z,97870.91
2019-05-02T14:22:52.755Z,97867.75
2019-05-02T14:28:14.256Z,97876.83
2019-05-02T14:33:33.226Z,97863.99
2019-05-02T14:38:41.900Z,97862.00
2019-05-02T14:44:09.054Z,97861.47
2019-05-02T14:50:02.261Z,97868.30
2019-05-02T14:55:25.582Z,97861.14
2019-05-02T15:00:47.429Z,97861.69
2019-05-02T15:06:04.197Z,97862.19
2019-05-02T15:11:30.580Z,97863.00
2019-05-02T15:16:45.340Z,97868.63
2019-05-02T15:22:04.471Z,97861.66
2019-05-02T15:27:17.693Z,97858.15
2019-05-02T15:32:53.499Z,97859.30
2019-05-02T15:38:08.273Z,97855.12
2019-05-02T15:43:15.363Z,97852.59
2019-05-02T15:48:27.488Z,97846.03
2019-05-02T15:54:02.664Z,97855.07
2019-05-02T15:58:58.003Z,97863.70
2019-05-02T16:04:06.372Z,97862.69
2019-05-02T16:09:11.963Z,97855.68
2019-05-02T16:14:20.518Z,97860.81
2019-05-02T16:19:29.396Z,97860.31
2019-05-02T16:24:36.012Z,97858.13
2019-05-02T16:29:43.824Z,97858.65
2019-05-02T16:35:07.269Z,97850.30
2019-05-02T16:40:12.017Z,97850.03
2019-05-02T16:45:22.243Z,97855.65
2019-05-02T16:50:34.714Z,97852.55
2019-05-02T16:55:36.025Z,97849.05
2019-05-02T17:00:45.557Z,97844.17
2019-05-02T17:05:50.074Z,97839.61
2019-05-02T17:10:59.395Z,97828.13
2019-05-02T17:16:13.147Z,97835.95
2019-05-02T17:21:13.977Z,97839.43
2019-05-02T17:26:19.916Z,97839.10
2019-05-02T17:31:25.635Z,97852.91
2019-05-02T17:36:32.512Z,97846.94
2019-05-02T17:41:42.358Z,97844.03
2019-05-02T17:46:50.798Z,97845.08
2019-05-02T17:52:20.866Z,97847.70
2019-05-02T17:57:28.574Z,97846.63
2019-05-02T18:02:33.940Z,97843.33
2019-05-02T18:07:41.847Z,97844.23
2019-05-02T18:12:55.869Z,97850.00
2019-05-02T18:17:59.718Z,97838.52
2019-05-02T18:23:05.748Z,97840.61
2019-05-02T18:28:14.031Z,97850.99
2019-05-02T18:33:17.553Z,97849.69
2019-05-02T18:38:23.162Z,97842.14
2019-05-02T18:43:28.799Z,97843.90
2019-05-02T18:48:36.602Z,97850.00
2019-05-02T18:53:43.141Z,97847.81
2019-05-02T18:58:48.718Z,97849.03
2019-05-02T19:03:56.326Z,97851.02
2019-05-02T19:09:06.532Z,97847.71
2019-05-02T19:14:16.622Z,97850.41
2019-05-02T19:19:22.608Z,97848.94
2019-05-02T19:24:32.883Z,97852.27
2019-05-02T19:29:36.637Z,97860.45
2019-05-02T19:34:42.105Z,97852.09
2019-05-02T19:39:52.403Z,97840.38
2019-05-02T19:45:03.675Z,97844.25
2019-05-02T19:50:07.600Z,97843.75
2019-05-02T19:55:19.906Z,97849.83
2019-05-02T20:00:22.166Z,97843.86
2019-05-02T20:05:32.561Z,97844.23
2019-05-02T20:10:42.348Z,97834.75
2019-05-02T20:16:06.507Z,97831.75
2019-05-02T20:21:32.539Z,97833.02
2019-05-02T20:26:37.806Z,97834.91
2019-05-02T20:31:43.653Z,97827.45
2019-05-02T20:36:49.136Z,97826.44
2019-05-02T20:41:54.634Z,97827.09
2019-05-02T20:47:02.577Z,97818.73
2019-05-02T20:52:08.477Z,97822.69
2019-05-02T20:57:14.055Z,97816.47
2019-05-02T21:02:19.641Z,97818.33
2019-05-02T21:07:33.057Z,97821.00
2019-05-02T21:12:38.719Z,97826.66
2019-05-02T21:17:46.106Z,97820.36
2019-05-02T21:22:52.930Z,97818.92
2019-05-02T21:27:59.968Z,97819.91
2019-05-02T21:33:06.728Z,97818.67
2019-05-02T21:38:13.847Z,97821.94
2019-05-02T21:43:19.450Z,97814.58
2019-05-02T21:48:26.593Z,97810.44
2019-05-02T21:53:56.020Z,97818.30
2019-05-02T21:59:06.294Z,97810.49
2019-05-02T22:04:13.329Z,97814.06
2019-05-02T22:09:19.130Z,97815.09
2019-05-02T22:14:24.511Z,97819.81
2019-05-02T22:19:29.907Z,97827.02
2019-05-02T22:24:35.602Z,97837.55
2019-05-02T22:29:42.898Z,97838.80
2019-05-02T22:34:48.407Z,97849.64
2019-05-02T22:39:58.425Z,97849.50
2019-05-02T22:45:04.590Z,97850.77
2019-05-02T22:50:13.880Z,97858.03
2019-05-02T22:55:18.056Z,97847.27
2019-05-02T23:00:23.614Z,97856.74
2019-05-02T23:05:28.932Z,97847.94
2019-05-02T23:10:34.522Z,97840.69
2019-05-02T23:15:40.009Z,97845.38
2019-05-02T23:20:45.293Z,97835.86
2019-05-02T23:26:08.982Z,97840.46
2019-05-02T23:31:14.436Z,97843.05
2019-05-02T23:36:22.212Z,97838.02
2019-05-02T23:41:27.828Z,97838.68
2019-05-02T23:46:34.339Z,97841.09
2019-05-02T23:51:39.818Z,97842.93
2019-05-02T23:56:45.254Z,97846.73
